sensor_id;sensor_type;location;lat;lon;timestamp;pressure;altitude;pressure_sealevel;temperature;humidity
38289;BME280;24092;53.370;-6.588;2023-05-12T00:00:19;101782.35;;;7.12;100.00
38289;BME280;24092;53.370;-6.588;2023-05-12T00:02:46;101780.75;;;6.81;100.00
38289;BME280;24092;53.370;-6.588;2023-05-12T00:05:13;101784.01;;;7.11;100.00
38289;BME280;24092;53.370;-6.588;2023-05-12T00:07:40;101785.88;;;7.15;100.00
38289;BME280;24092;53.370;-6.588;2023-05-12T00:10:08;101788.44;;;8.70;100.00
38289;BME280;24092;53.370;-6.588;2023-05-12T00:12:35;101788.79;;;9.34;100.00
38289;BME280;24092;53.370;-6.588;2023-05-12T00:15:03;101789.92;;;9.72;100.00
38289;BME280;24092;53.370;-6.588;2023-05-12T00:17:30;101792.36;;;10.14;100.00
38289;BME280;24092;53.370;-6.588;2023-05-12T00:19:57;101797.68;;;9.88;100.00
38289;BME280;24092;53.370;-6.588;2023-05-12T00:22:25;101798.94;;;10.43;100.00
38289;BME280;24092;53.370;-6.588;2023-05-12T00:24:51;101799.55;;;10.22;100.00
38289;BME280;24092;53.370;-6.588;2023-05-12T00:27:18;101805.53;;;9.89;100.00
38289;BME280;24092;53.370;-6.588;2023-05-12T00:29:45;101805.04;;;9.84;100.00
38289;BME280;24092;53.370;-6.588;2023-05-12T00:32:12;101806.47;;;9.74;100.00
38289;BME280;24092;53.370;-6.588;2023-05-12T00:34:39;101807.23;;;9.18;100.00
38289;BME280;24092;53.370;-6.588;2023-05-12T00:37:06;101810.92;;;8.82;100.00
38289;BME280;24092;53.370;-6.588;2023-05-12T00:39:33;101811.23;;;9.00;100.00
38289;BME280;24092;53.370;-6.588;2023-05-12T00:42:01;101815.23;;;8.71;100.00
38289;BME280;24092;53.370;-6.588;2023-05-12T00:44:28;101815.77;;;8.60;100.00
38289;BME280;24092;53.370;-6.588;2023-05-12T00:46:55;101814.55;;;8.70;100.00
38289;BME280;24092;53.370;-6.588;2023-05-12T00:49:24;101813.34;;;8.52;100.00
38289;BME280;24092;53.370;-6.588;2023-05-12T00:51:53;101812.86;;;8.41;100.00
38289;BME280;24092;53.370;-6.588;2023-05-12T00:54:20;101816.68;;;8.18;100.00
38289;BME280;24092;53.370;-6.588;2023-05-12T00:56:47;101817.69;;;9.23;100.00
38289;BME280;24092;53.370;-6.588;2023-05-12T00:59:14;101816.74;;;9.01;100.00
38289;BME280;24092;53.370;-6.588;2023-05-12T01:01:41;101820.77;;;8.84;100.00
38289;BME280;24092;53.370;-6.588;2023-05-12T01:04:08;101825.49;;;8.34;100.00
38289;BME280;24092;53.370;-6.588;2023-05-12T01:06:39;101823.79;;;7.78;100.00
38289;BME280;24092;53.370;-6.588;2023-05-12T01:09:09;101828.75;;;7.77;100.00
38289;BME280;24092;53.370;-6.588;2023-05-12T01:11:36;101829.40;;;7.69;100.00
38289;BME280;24092;53.370;-6.588;2023-05-12T01:14:03;101829.00;;;7.57;100.00
38289;BME280;24092;53.370;-6.588;2023-05-12T01:16:33;101831.81;;;7.12;100.00
38289;BME280;24092;53.370;-6.588;2023-05-12T01:19:05;101836.79;;;7.27;100.00
38289;BME280;24092;53.370;-6.588;2023-05-12T01:21:32;101834.59;;;7.87;100.00
38289;BME280;24092;53.370;-6.588;2023-05-12T01:24:07;101832.38;;;8.13;100.00
38289;BME280;24092;53.370;-6.588;2023-05-12T01:26:37;101833.64;;;7.94;100.00
38289;BME280;24092;53.370;-6.588;2023-05-12T01:29:05;101834.10;;;8.05;100.00
38289;BME280;24092;53.370;-6.588;2023-05-12T01:31:33;101841.69;;;8.37;100.00
38289;BME280;24092;53.370;-6.588;2023-05-12T01:34:01;101847.90;;;8.46;100.00
38289;BME280;24092;53.370;-6.588;2023-05-12T01:36:28;101848.17;;;8.35;100.00
38289;BME280;24092;53.370;-6.588;2023-05-12T01:38:55;101844.58;;;8.58;100.00
38289;BME280;24092;53.370;-6.588;2023-05-12T01:41:22;101844.65;;;8.25;100.00
38289;BME280;24092;53.370;-6.588;2023-05-12T01:43:49;101849.44;;;8.82;100.00
38289;BME280;24092;53.370;-6.588;2023-05-12T01:46:16;101852.48;;;8.48;100.00
38289;BME280;24092;53.370;-6.588;2023-05-12T01:48:43;101855.51;;;8.30;100.00
38289;BME280;24092;53.370;-6.588;2023-05-12T01:51:11;101855.05;;;8.44;100.00
38289;BME280;24092;53.370;-6.588;2023-05-12T01:53:38;101858.38;;;8.42;100.00
38289;BME280;24092;53.370;-6.588;2023-05-12T01:56:05;101859.41;;;8.23;100.00
38289;BME280;24092;53.370;-6.588;2023-05-12T01:58:32;101865.05;;;7.92;100.00
38289;BME280;24092;53.370;-6.588;2023-05-12T02:00:59;101868.81;;;8.06;100.00
38289;BME280;24092;53.370;-6.588;2023-05-12T02:03:26;101876.00;;;7.29;100.00
38289;BME280;24092;53.370;-6.588;2023-05-12T02:05:53;101877.48;;;7.95;100.00
38289;BME280;24092;53.370;-6.588;2023-05-12T02:08:20;101877.14;;;8.03;100.00
38289;BME280;24092;53.370;-6.588;2023-05-12T02:10:47;101878.32;;;7.88;100.00
38289;BME280;24092;53.370;-6.588;2023-05-12T02:13:14;101879.28;;;7.91;100.00
38289;BME280;24092;53.370;-6.588;2023-05-12T02:15:41;101879.51;;;7.75;100.00
38289;BME280;24092;53.370;-6.588;2023-05-12T02:18:08;101880.52;;;7.25;100.00
38289;BME280;24092;53.370;-6.588;2023-05-12T02:20:35;101884.97;;;7.45;100.00
38289;BME280;24092;53.370;-6.588;2023-05-12T02:23:02;101883.88;;;7.09;100.00
38289;BME280;24092;53.370;-6.588;2023-05-12T02:25:29;101886.18;;;7.42;100.00
38289;BME280;24092;53.370;-6.588;2023-05-12T02:27:56;101890.39;;;7.56;100.00
38289;BME280;24092;53.370;-6.588;2023-05-12T02:30:24;101892.35;;;7.71;100.00
38289;BME280;24092;53.370;-6.588;2023-05-12T02:32:51;101896.22;;;8.08;100.00
38289;BME280;24092;53.370;-6.588;2023-05-12T02:35:18;101896.85;;;7.96;100.00
38289;BME280;24092;53.370;-6.588;2023-05-12T02:37:45;101901.55;;;7.57;100.00
38289;BME280;24092;53.370;-6.588;2023-05-12T02:40:12;101905.38;;;7.32;100.00
38289;BME280;24092;53.370;-6.588;2023-05-12T02:42:40;101905.34;;;6.82;100.00
38289;BME280;24092;53.370;-6.588;2023-05-12T02:45:08;101905.66;;;8.06;100.00
38289;BME280;24092;53.370;-6.588;2023-05-12T02:47:35;101904.14;;;7.79;100.00
38289;BME280;24092;53.370;-6.588;2023-05-12T02:50:02;101904.81;;;7.85;100.00
38289;BME280;24092;53.370;-6.588;2023-05-12T02:52:29;101905.80;;;7.96;100.00
38289;BME280;24092;53.370;-6.588;2023-05-12T02:54:56;101911.28;;;7.41;100.00
38289;BME280;24092;53.370;-6.588;2023-05-12T02:57:23;101915.89;;;7.73;100.00
38289;BME280;24092;53.370;-6.588;2023-05-12T02:59:50;101914.68;;;7.92;100.00
38289;BME280;24092;53.370;-6.588;2023-05-12T03:02:17;101913.25;;;7.61;100.00
38289;BME280;24092;53.370;-6.588;2023-05-12T03:04:44;101913.10;;;7.69;100.00
38289;BME280;24092;53.370;-6.588;2023-05-12T03:07:11;101913.61;;;7.73;100.00
38289;BME280;24092;53.370;-6.588;2023-05-12T03:09:38;101906.46;;;7.57;100.00
38289;BME280;24092;53.370;-6.588;2023-05-12T03:12:06;101906.89;;;6.97;100.00
38289;BME280;24092;53.370;-6.588;2023-05-12T03:14:33;101907.10;;;7.61;100.00
38289;BME280;24092;53.370;-6.588;2023-05-12T03:17:01;101906.51;;;7.04;100.00
38289;BME280;24092;53.370;-6.588;2023-05-12T03:19:28;101900.52;;;8.25;100.00
38289;BME280;24092;53.370;-6.588;2023-05-12T03:21:55;101905.11;;;7.65;100.00
38289;BME280;24092;53.370;-6.588;2023-05-12T03:24:22;101902.13;;;7.85;100.00
38289;BME280;24092;53.370;-6.588;2023-05-12T03:26:49;101912.82;;;7.75;100.00
38289;BME280;24092;53.370;-6.588;2023-05-12T03:29:16;101912.58;;;7.57;100.00
38289;BME280;24092;53.370;-6.588;2023-05-12T03:31:44;101913.33;;;7.91;100.00
38289;BME280;24092;53.370;-6.588;2023-05-12T03:34:11;101918.58;;;7.85;100.00
38289;BME280;24092;53.370;-6.588;2023-05-12T03:36:39;101918.49;;;7.69;100.00
38289;BME280;24092;53.370;-6.588;2023-05-12T03:39:06;101919.05;;;7.53;100.00
38289;BME280;24092;53.370;-6.588;2023-05-12T03:41:33;101920.56;;;6.74;100.00
38289;BME280;24092;53.370;-6.588;2023-05-12T03:44:00;101917.22;;;6.02;100.00
38289;BME280;24092;53.370;-6.588;2023-05-12T03:46:27;101918.79;;;5.83;100.00
38289;BME280;24092;53.370;-6.588;2023-05-12T03:48:54;101918.92;;;5.89;100.00
38289;BME280;24092;53.370;-6.588;2023-05-12T03:51:21;101920.93;;;6.37;100.00
38289;BME280;24092;53.370;-6.588;2023-05-12T03:53:49;101922.10;;;6.46;100.00
38289;BME280;24092;53.370;-6.588;2023-05-12T03:56:16;101930.43;;;6.28;100.00
38289;BME280;24092;53.370;-6.588;2023-05-12T03:58:43;101933.75;;;6.86;100.00
38289;BME280;24092;53.370;-6.588;2023-05-12T04:01:10;101935.33;;;6.52;100.00
38289;BME280;24092;53.370;-6.588;2023-05-12T04:03:37;101937.70;;;7.10;100.00
38289;BME280;24092;53.370;-6.588;2023-05-12T04:06:04;101944.28;;;7.03;100.00
38289;BME280;24092;53.370;-6.588;2023-05-12T04:08:33;101947.25;;;6.42;100.00
38289;BME280;24092;53.370;-6.588;2023-05-12T04:11:01;101946.03;;;6.38;100.00
38289;BME280;24092;53.370;-6.588;2023-05-12T04:13:29;101948.65;;;6.07;100.00
38289;BME280;24092;53.370;-6.588;2023-05-12T04:15:56;101952.70;;;7.02;100.00
38289;BME280;24092;53.370;-6.588;2023-05-12T04:18:24;101951.69;;;6.64;100.00
38289;BME280;24092;53.370;-6.588;2023-05-12T04:20:52;101948.50;;;6.69;100.00
38289;BME280;24092;53.370;-6.588;2023-05-12T04:23:20;101950.47;;;6.57;100.00
38289;BME280;24092;53.370;-6.588;2023-05-12T04:25:47;101955.16;;;5.43;100.00
38289;BME280;24092;53.370;-6.588;2023-05-12T04:28:14;101954.70;;;6.76;100.00
38289;BME280;24092;53.370;-6.588;2023-05-12T04:30:41;101959.78;;;6.84;100.00
38289;BME280;24092;53.370;-6.588;2023-05-12T04:33:09;101962.98;;;7.04;100.00
38289;BME280;24092;53.370;-6.588;2023-05-12T04:35:36;101966.98;;;7.15;100.00
38289;BME280;24092;53.370;-6.588;2023-05-12T04:38:03;101970.97;;;7.21;100.00
38289;BME280;24092;53.370;-6.588;2023-05-12T04:40:30;101968.35;;;7.19;100.00
38289;BME280;24092;53.370;-6.588;2023-05-12T04:42:57;101970.73;;;6.86;100.00
38289;BME280;24092;53.370;-6.588;2023-05-12T04:45:24;101975.03;;;7.13;100.00
38289;BME280;24092;53.370;-6.588;2023-05-12T04:47:51;101976.05;;;7.01;100.00
38289;BME280;24092;53.370;-6.588;2023-05-12T04:50:19;101978.58;;;6.50;100.00
38289;BME280;24092;53.370;-6.588;2023-05-12T04:52:46;101981.35;;;6.87;100.00
38289;BME280;24092;53.370;-6.588;2023-05-12T04:55:13;101985.24;;;6.44;100.00
38289;BME280;24092;53.370;-6.588;2023-05-12T04:57:40;101986.18;;;6.42;100.00
38289;BME280;24092;53.370;-6.588;2023-05-12T05:00:08;101990.21;;;6.23;100.00
38289;BME280;24092;53.370;-6.588;2023-05-12T05:02:35;101988.29;;;6.21;100.00
38289;BME280;24092;53.370;-6.588;2023-05-12T05:05:02;101988.72;;;6.32;100.00
38289;BME280;24092;53.370;-6.588;2023-05-12T05:07:29;101999.61;;;6.18;100.00
38289;BME280;24092;53.370;-6.588;2023-05-12T05:09:56;102006.19;;;6.71;100.00
38289;BME280;24092;53.370;-6.588;2023-05-12T05:12:23;102011.90;;;6.07;100.00
38289;BME280;24092;53.370;-6.588;2023-05-12T05:14:50;102014.08;;;5.79;100.00
38289;BME280;24092;53.370;-6.588;2023-05-12T05:17:18;102018.52;;;6.25;100.00
38289;BME280;24092;53.370;-6.588;2023-05-12T05:19:45;102020.13;;;6.04;100.00
38289;BME280;24092;53.370;-6.588;2023-05-12T05:22:12;102025.21;;;5.98;100.00
38289;BME280;24092;53.370;-6.588;2023-05-12T05:24:39;102032.79;;;6.08;100.00
38289;BME280;24092;53.370;-6.588;2023-05-12T05:27:06;102037.58;;;5.83;100.00
38289;BME280;24092;53.370;-6.588;2023-05-12T05:29:33;102035.19;;;6.22;100.00
38289;BME280;24092;53.370;-6.588;2023-05-12T05:32:00;102034.37;;;6.99;100.00
38289;BME280;24092;53.370;-6.588;2023-05-12T05:34:27;102041.85;;;7.34;100.00
38289;BME280;24092;53.370;-6.588;2023-05-12T05:36:54;102048.90;;;6.77;100.00
38289;BME280;24092;53.370;-6.588;2023-05-12T05:39:21;102053.58;;;6.20;100.00
38289;BME280;24092;53.370;-6.588;2023-05-12T05:41:49;102056.52;;;7.43;100.00
38289;BME280;24092;53.370;-6.588;2023-05-12T05:44:16;102067.26;;;7.91;100.00
38289;BME280;24092;53.370;-6.588;2023-05-12T05:46:43;102070.56;;;7.82;100.00
38289;BME280;24092;53.370;-6.588;2023-05-12T05:49:10;102077.67;;;8.24;100.00
38289;BME280;24092;53.370;-6.588;2023-05-12T05:51:37;102081.34;;;8.34;100.00
38289;BME280;24092;53.370;-6.588;2023-05-12T05:54:04;102080.12;;;8.44;100.00
38289;BME280;24092;53.370;-6.588;2023-05-12T05:56:31;102080.92;;;8.75;100.00
38289;BME280;24092;53.370;-6.588;2023-05-12T05:58:58;102078.56;;;9.39;100.00
38289;BME280;24092;53.370;-6.588;2023-05-12T06:01:25;102082.26;;;8.32;100.00
38289;BME280;24092;53.370;-6.588;2023-05-12T06:03:52;102083.36;;;8.73;100.00
38289;BME280;24092;53.370;-6.588;2023-05-12T06:06:19;102080.18;;;9.99;100.00
38289;BME280;24092;53.370;-6.588;2023-05-12T06:08:46;102082.34;;;9.92;100.00
38289;BME280;24092;53.370;-6.588;2023-05-12T06:11:13;102083.76;;;9.90;100.00
38289;BME280;24092;53.370;-6.588;2023-05-12T06:13:40;102086.88;;;10.51;100.00
38289;BME280;24092;53.370;-6.588;2023-05-12T06:16:07;102089.87;;;11.25;100.00
38289;BME280;24092;53.370;-6.588;2023-05-12T06:18:34;102085.25;;;11.78;100.00
38289;BME280;24092;53.370;-6.588;2023-05-12T06:21:01;102089.57;;;12.44;100.00
38289;BME280;24092;53.370;-6.588;2023-05-12T06:23:29;102095.33;;;12.81;100.00
38289;BME280;24092;53.370;-6.588;2023-05-12T06:25:55;102098.65;;;13.52;100.00
38289;BME280;24092;53.370;-6.588;2023-05-12T06:28:22;102102.07;;;14.19;100.00
38289;BME280;24092;53.370;-6.588;2023-05-12T06:30:49;102101.23;;;15.44;100.00
38289;BME280;24092;53.370;-6.588;2023-05-12T06:33:16;102104.68;;;11.40;100.00
38289;BME280;24092;53.370;-6.588;2023-05-12T06:35:43;102100.29;;;14.83;100.00
38289;BME280;24092;53.370;-6.588;2023-05-12T06:38:10;102106.14;;;15.50;100.00
38289;BME280;24092;53.370;-6.588;2023-05-12T06:40:37;102111.38;;;15.41;100.00
38289;BME280;24092;53.370;-6.588;2023-05-12T06:43:04;102114.07;;;14.49;100.00
38289;BME280;24092;53.370;-6.588;2023-05-12T06:45:31;102112.94;;;16.63;100.00
38289;BME280;24092;53.370;-6.588;2023-05-12T06:47:58;102111.52;;;14.46;100.00
38289;BME280;24092;53.370;-6.588;2023-05-12T06:50:25;102108.78;;;15.73;100.00
38289;BME280;24092;53.370;-6.588;2023-05-12T06:52:52;102111.64;;;15.76;100.00
38289;BME280;24092;53.370;-6.588;2023-05-12T06:55:19;102116.20;;;16.21;100.00
38289;BME280;24092;53.370;-6.588;2023-05-12T06:57:46;102116.00;;;16.70;100.00
38289;BME280;24092;53.370;-6.588;2023-05-12T07:00:13;102115.30;;;17.06;100.00
38289;BME280;24092;53.370;-6.588;2023-05-12T07:02:40;102113.49;;;16.76;100.00
38289;BME280;24092;53.370;-6.588;2023-05-12T07:05:08;102111.78;;;14.25;100.00
38289;BME280;24092;53.370;-6.588;2023-05-12T07:07:35;102115.00;;;14.46;100.00
38289;BME280;24092;53.370;-6.588;2023-05-12T07:10:02;102114.94;;;15.09;100.00
38289;BME280;24092;53.370;-6.588;2023-05-12T07:12:29;102122.54;;;11.58;100.00
38289;BME280;24092;53.370;-6.588;2023-05-12T07:14:57;102119.28;;;12.55;100.00
38289;BME280;24092;53.370;-6.588;2023-05-12T07:17:23;102121.42;;;14.09;100.00
38289;BME280;24092;53.370;-6.588;2023-05-12T07:19:51;102123.66;;;11.69;100.00
38289;BME280;24092;53.370;-6.588;2023-05-12T07:22:19;102123.50;;;12.60;100.00
38289;BME280;24092;53.370;-6.588;2023-05-12T07:24:47;102126.83;;;11.14;100.00
38289;BME280;24092;53.370;-6.588;2023-05-12T07:27:15;102127.17;;;10.71;100.00
38289;BME280;24092;53.370;-6.588;2023-05-12T07:29:42;102130.67;;;11.53;100.00
38289;BME280;24092;53.370;-6.588;2023-05-12T07:32:09;102133.45;;;9.45;100.00
38289;BME280;24092;53.370;-6.588;2023-05-12T07:34:36;102132.15;;;11.61;100.00
38289;BME280;24092;53.370;-6.588;2023-05-12T07:37:03;102131.22;;;11.50;100.00
38289;BME280;24092;53.370;-6.588;2023-05-12T07:39:30;102136.92;;;7.35;100.00
38289;BME280;24092;53.370;-6.588;2023-05-12T07:41:57;102137.49;;;9.99;100.00
38289;BME280;24092;53.370;-6.588;2023-05-12T07:44:24;102139.57;;;9.38;100.00
38289;BME280;24092;53.370;-6.588;2023-05-12T07:46:51;102143.82;;;8.63;100.00
38289;BME280;24092;53.370;-6.588;2023-05-12T07:49:18;102144.31;;;8.20;100.00
38289;BME280;24092;53.370;-6.588;2023-05-12T07:51:45;102151.33;;;6.79;100.00
38289;BME280;24092;53.370;-6.588;2023-05-12T07:54:12;102156.44;;;6.59;100.00
38289;BME280;24092;53.370;-6.588;2023-05-12T07:56:39;102160.12;;;5.90;100.00
38289;BME280;24092;53.370;-6.588;2023-05-12T07:59:06;102160.65;;;7.14;100.00
38289;BME280;24092;53.370;-6.588;2023-05-12T08:01:32;102161.20;;;7.59;100.00
38289;BME280;24092;53.370;-6.588;2023-05-12T08:03:59;102164.31;;;6.14;100.00
38289;BME280;24092;53.370;-6.588;2023-05-12T08:06:26;102167.78;;;5.81;100.00
38289;BME280;24092;53.370;-6.588;2023-05-12T08:08:53;102169.11;;;5.67;100.00
38289;BME280;24092;53.370;-6.588;2023-05-12T08:11:20;102166.28;;;5.25;100.00
38289;BME280;24092;53.370;-6.588;2023-05-12T08:13:47;102171.94;;;6.23;100.00
38289;BME280;24092;53.370;-6.588;2023-05-12T08:16:14;102168.25;;;6.91;100.00
38289;BME280;24092;53.370;-6.588;2023-05-12T08:18:40;102171.60;;;6.32;100.00
38289;BME280;24092;53.370;-6.588;2023-05-12T08:21:08;102177.25;;;5.70;100.00
38289;BME280;24092;53.370;-6.588;2023-05-12T08:23:35;102180.16;;;5.38;100.00
38289;BME280;24092;53.370;-6.588;2023-05-12T08:26:02;102187.84;;;4.81;100.00
38289;BME280;24092;53.370;-6.588;2023-05-12T08:28:29;102189.61;;;4.91;100.00
38289;BME280;24092;53.370;-6.588;2023-05-12T08:30:57;102186.95;;;5.83;100.00
38289;BME280;24092;53.370;-6.588;2023-05-12T08:33:24;102186.77;;;5.26;100.00
38289;BME280;24092;53.370;-6.588;2023-05-12T08:35:51;102190.99;;;5.43;100.00
38289;BME280;24092;53.370;-6.588;2023-05-12T08:38:18;102192.31;;;5.66;100.00
38289;BME280;24092;53.370;-6.588;2023-05-12T08:40:49;102195.65;;;5.26;100.00
38289;BME280;24092;53.370;-6.588;2023-05-12T08:43:23;102202.63;;;5.04;100.00
38289;BME280;24092;53.370;-6.588;2023-05-12T08:45:51;102204.34;;;5.59;100.00
38289;BME280;24092;53.370;-6.588;2023-05-12T08:48:19;102205.35;;;6.09;100.00
38289;BME280;24092;53.370;-6.588;2023-05-12T08:50:49;102206.19;;;7.14;100.00
38289;BME280;24092;53.370;-6.588;2023-05-12T08:53:18;102205.70;;;6.88;100.00
38289;BME280;24092;53.370;-6.588;2023-05-12T08:55:47;102207.82;;;7.57;100.00
38289;BME280;24092;53.370;-6.588;2023-05-12T08:58:14;102211.71;;;7.65;100.00
38289;BME280;24092;53.370;-6.588;2023-05-12T09:00:41;102210.77;;;9.61;100.00
38289;BME280;24092;53.370;-6.588;2023-05-12T09:03:11;102214.49;;;8.59;100.00
38289;BME280;24092;53.370;-6.588;2023-05-12T09:05:39;102217.47;;;8.72;100.00
38289;BME280;24092;53.370;-6.588;2023-05-12T09:08:09;102215.29;;;7.31;100.00
38289;BME280;24092;53.370;-6.588;2023-05-12T09:10:37;102215.91;;;6.15;100.00
38289;BME280;24092;53.370;-6.588;2023-05-12T09:13:14;102219.54;;;6.17;100.00
38289;BME280;24092;53.370;-6.588;2023-05-12T09:15:44;102219.09;;;6.27;100.00
38289;BME280;24092;53.370;-6.588;2023-05-12T09:18:13;102216.21;;;6.57;100.00
38289;BME280;24092;53.370;-6.588;2023-05-12T09:20:40;102217.51;;;6.49;100.00
38289;BME280;24092;53.370;-6.588;2023-05-12T09:23:13;102219.36;;;6.15;100.00
38289;BME280;24092;53.370;-6.588;2023-05-12T09:25:40;102220.53;;;6.99;100.00
38289;BME280;24092;53.370;-6.588;2023-05-12T09:28:07;102217.64;;;7.31;100.00
38289;BME280;24092;53.370;-6.588;2023-05-12T09:30:35;102220.14;;;7.31;100.00
38289;BME280;24092;53.370;-6.588;2023-05-12T09:33:05;102222.86;;;8.36;100.00
38289;BME280;24092;53.370;-6.588;2023-05-12T09:35:37;102227.55;;;8.65;100.00
38289;BME280;24092;53.370;-6.588;2023-05-12T09:38:06;102227.04;;;7.96;100.00
38289;BME280;24092;53.370;-6.588;2023-05-12T09:40:33;102227.54;;;7.32;100.00
38289;BME280;24092;53.370;-6.588;2023-05-12T09:43:00;102229.25;;;9.16;100.00
38289;BME280;24092;53.370;-6.588;2023-05-12T09:45:27;102232.17;;;6.80;100.00
38289;BME280;24092;53.370;-6.588;2023-05-12T09:47:54;102235.94;;;6.32;100.00
38289;BME280;24092;53.370;-6.588;2023-05-12T09:50:21;102237.42;;;6.64;100.00
38289;BME280;24092;53.370;-6.588;2023-05-12T09:52:49;102235.77;;;6.01;100.00
38289;BME280;24092;53.370;-6.588;2023-05-12T09:55:17;102236.23;;;6.48;100.00
38289;BME280;24092;53.370;-6.588;2023-05-12T09:57:44;102233.27;;;6.52;100.00
38289;BME280;24092;53.370;-6.588;2023-05-12T10:00:13;102231.11;;;7.72;100.00
38289;BME280;24092;53.370;-6.588;2023-05-12T10:02:41;102233.49;;;7.31;100.00
38289;BME280;24092;53.370;-6.588;2023-05-12T10:05:14;102236.80;;;7.93;100.00
38289;BME280;24092;53.370;-6.588;2023-05-12T10:07:42;102235.85;;;7.64;100.00
38289;BME280;24092;53.370;-6.588;2023-05-12T10:10:10;102238.01;;;7.21;100.00
38289;BME280;24092;53.370;-6.588;2023-05-12T10:12:40;102237.26;;;7.74;100.00
38289;BME280;24092;53.370;-6.588;2023-05-12T10:15:09;102237.98;;;7.42;100.00
38289;BME280;24092;53.370;-6.588;2023-05-12T10:17:36;102240.99;;;7.60;100.00
38289;BME280;24092;53.370;-6.588;2023-05-12T10:20:07;102239.76;;;7.75;100.00
38289;BME280;24092;53.370;-6.588;2023-05-12T10:22:37;102241.69;;;7.52;100.00
38289;BME280;24092;53.370;-6.588;2023-05-12T10:25:06;102242.16;;;7.55;100.00
38289;BME280;24092;53.370;-6.588;2023-05-12T10:27:34;102244.56;;;7.87;100.00
38289;BME280;24092;53.370;-6.588;2023-05-12T10:30:03;102243.10;;;7.10;100.00
38289;BME280;24092;53.370;-6.588;2023-05-12T10:32:31;102240.92;;;7.09;100.00
38289;BME280;24092;53.370;-6.588;2023-05-12T10:35:07;102239.98;;;7.76;100.00
38289;BME280;24092;53.370;-6.588;2023-05-12T10:37:35;102242.45;;;8.03;100.00
38289;BME280;24092;53.370;-6.588;2023-05-12T10:40:02;102243.54;;;8.20;100.00
38289;BME280;24092;53.370;-6.588;2023-05-12T10:42:37;102243.45;;;6.77;100.00
38289;BME280;24092;53.370;-6.588;2023-05-12T10:45:14;102247.98;;;7.83;100.00
38289;BME280;24092;53.370;-6.588;2023-05-12T10:47:42;102248.67;;;8.55;100.00
38289;BME280;24092;53.370;-6.588;2023-05-12T10:50:10;102251.48;;;6.63;100.00
38289;BME280;24092;53.370;-6.588;2023-05-12T10:52:37;102251.70;;;6.83;100.00
38289;BME280;24092;53.370;-6.588;2023-05-12T10:55:04;102250.62;;;7.35;100.00
38289;BME280;24092;53.370;-6.588;2023-05-12T10:57:47;102249.36;;;7.90;100.00
38289;BME280;24092;53.370;-6.588;2023-05-12T11:00:15;102253.36;;;7.15;100.00
38289;BME280;24092;53.370;-6.588;2023-05-12T11:02:48;102254.66;;;8.18;100.00
38289;BME280;24092;53.370;-6.588;2023-05-12T11:05:15;102260.28;;;6.89;100.00
38289;BME280;24092;53.370;-6.588;2023-05-12T11:07:46;102265.17;;;7.24;100.00
38289;BME280;24092;53.370;-6.588;2023-05-12T11:10:14;102262.32;;;8.18;100.00
38289;BME280;24092;53.370;-6.588;2023-05-12T11:12:42;102264.43;;;6.98;100.00
38289;BME280;24092;53.370;-6.588;2023-05-12T11:15:10;102264.09;;;6.83;100.00
38289;BME280;24092;53.370;-6.588;2023-05-12T11:17:38;102261.41;;;8.03;100.00
38289;BME280;24092;53.370;-6.588;2023-05-12T11:20:06;102266.74;;;7.40;100.00
38289;BME280;24092;53.370;-6.588;2023-05-12T11:22:33;102266.65;;;7.26;100.00
38289;BME280;24092;53.370;-6.588;2023-05-12T11:25:08;102268.32;;;8.63;100.00
38289;BME280;24092;53.370;-6.588;2023-05-12T11:27:35;102272.88;;;7.55;100.00
38289;BME280;24092;53.370;-6.588;2023-05-12T11:30:02;102274.79;;;6.81;100.00
38289;BME280;24092;53.370;-6.588;2023-05-12T11:32:29;102269.26;;;8.31;100.00
38289;BME280;24092;53.370;-6.588;2023-05-12T11:35:07;102275.75;;;8.63;100.00
38289;BME280;24092;53.370;-6.588;2023-05-12T11:37:36;102283.68;;;8.94;100.00
38289;BME280;24092;53.370;-6.588;2023-05-12T11:40:03;102274.87;;;8.35;100.00
38289;BME280;24092;53.370;-6.588;2023-05-12T11:42:37;102272.30;;;7.91;100.00
38289;BME280;24092;53.370;-6.588;2023-05-12T11:45:04;102278.12;;;7.69;100.00
38289;BME280;24092;53.370;-6.588;2023-05-12T11:47:32;102274.92;;;8.25;100.00
38289;BME280;24092;53.370;-6.588;2023-05-12T11:49:59;102277.19;;;8.70;100.00
38289;BME280;24092;53.370;-6.588;2023-05-12T11:52:26;102277.29;;;7.98;100.00
38289;BME280;24092;53.370;-6.588;2023-05-12T11:54:57;102279.50;;;8.37;100.00
38289;BME280;24092;53.370;-6.588;2023-05-12T11:57:25;102277.79;;;9.06;100.00
38289;BME280;24092;53.370;-6.588;2023-05-12T11:59:56;102272.88;;;7.93;100.00
38289;BME280;24092;53.370;-6.588;2023-05-12T12:02:24;102274.00;;;8.65;100.00
38289;BME280;24092;53.370;-6.588;2023-05-12T12:04:52;102274.44;;;7.48;100.00
38289;BME280;24092;53.370;-6.588;2023-05-12T12:07:28;102276.70;;;9.03;100.00
38289;BME280;24092;53.370;-6.588;2023-05-12T12:09:56;102271.42;;;8.12;100.00
38289;BME280;24092;53.370;-6.588;2023-05-12T12:12:23;102275.36;;;7.39;100.00
38289;BME280;24092;53.370;-6.588;2023-05-12T12:14:50;102280.39;;;9.37;100.00
38289;BME280;24092;53.370;-6.588;2023-05-12T12:17:16;102277.47;;;8.13;100.00
38289;BME280;24092;53.370;-6.588;2023-05-12T12:19:43;102280.45;;;8.40;100.00
38289;BME280;24092;53.370;-6.588;2023-05-12T12:22:10;102279.42;;;8.59;100.00
38289;BME280;24092;53.370;-6.588;2023-05-12T12:24:37;102275.43;;;8.54;100.00
38289;BME280;24092;53.370;-6.588;2023-05-12T12:27:04;102278.68;;;8.30;100.00
38289;BME280;24092;53.370;-6.588;2023-05-12T12:29:31;102278.98;;;8.84;100.00
38289;BME280;24092;53.370;-6.588;2023-05-12T12:31:58;102281.16;;;9.15;100.00
38289;BME280;24092;53.370;-6.588;2023-05-12T12:34:25;102275.29;;;10.58;100.00
38289;BME280;24092;53.370;-6.588;2023-05-12T12:36:52;102268.55;;;9.67;100.00
38289;BME280;24092;53.370;-6.588;2023-05-12T12:39:19;102278.47;;;8.77;100.00